PDT,Max TemperatureF,Mean TemperatureF,Min TemperatureF,Max Dew PointF,MeanDew PointF,Min DewpointF,Max Humidity, Mean Humidity, Min Humidity, Max Sea Level PressureIn, Mean Sea Level PressureIn, Min Sea Level PressureIn, Max VisibilityMiles, Mean VisibilityMiles, Min VisibilityMiles, Max Wind SpeedMPH, Mean Wind SpeedMPH, Max Gust SpeedMPH,PrecipitationIn, CloudCover, Events, WindDirDegrees
2013-3-1,52,46,39,46,41,34,100,90,56,30.50,30.43,30.28,10,4,0,14,7,18,0.01,4,Fog-Rain,147
2013-3-2,46,42,37,41,38,34,100,89,68,30.27,30.18,30.15,10,5,0,10,5,,0.01,5,Fog-Rain,262
2013-3-3,37,34,30,37,32,27,100,93,72,30.19,30.14,30.10,10,4,0,13,6,20,0.01,3,Fog-Rain,350
2013-3-4,48,39,30,34,24,0,92,60,21,30.11,30.01,29.88,10,10,10,16,10,24,0.00,0,,164
2013-3-5,37,34,32,36,31,13,100,88,39,29.87,29.73,29.53,10,3,0,18,13,28,0.44,7,Fog-Rain-Snow,169
2013-3-6,32,30,28,31,29,27,100,94,86,29.98,29.71,29.47,0,0,0,21,12,32,0.69,8,Fog-Rain-Snow,195
2013-3-7,37,32,28,34,28,25,96,88,70,30.00,29.95,29.89,10,7,0,12,8,,0.00,3,Fog-Snow,167
2013-3-8,39,34,30,31,28,22,100,82,64,30.17,30.03,29.95,10,7,0,14,6,24,0.00,2,Fog,4
2013-3-9,46,38,30,33,28,20,100,80,45,30.47,30.30,30.11,10,6,0,13,8,,0.00,2,Fog,43
2013-3-10,51,44,37,38,29,21,76,55,42,30.46,30.41,30.36,10,10,10,14,3,21,0.00,0,Rain,53
2013-3-11,53,46,41,40,37,33,89,72,59,30.36,30.29,30.20,10,10,10,9,4,,0.00,0,,18
2013-3-12,57,48,41,42,38,32,93,70,53,30.22,30.18,30.14,10,10,10,13,4,,0.99,0,,190
2013-3-13,60,50,44,39,34,26,66,53,32,30.19,30.15,30.10,10,10,10,12,7,,0.00,0,,180
2013-3-14,57,49,43,37,30,23,64,50,29,30.23,30.12,30.04,10,10,10,15,10,32,0.00,1,,214
2013-3-15,55,47,39,41,37,31,96,74,47,30.22,30.19,30.14,10,9,0,10,4,17,0.00,3,Fog,2
2013-3-16,41,37,33,38,36,32,100,94,82,30.18,30.14,30.08,10,4,0,13,4,18,0.06,6,Fog-Rain,298
2013-3-17,39,32,26,31,28,24,100,89,62,30.28,30.20,30.13,10,4,0,10,5,,0.00,3,Fog-Snow,345
2013-3-18,48,38,28,33,29,24,85,70,54,30.22,30.15,30.06,10,10,10,7,4,,0.00,1,,130
2013-3-19,48,42,39,41,35,27,100,78,50,30.05,29.93,29.76,10,6,0,18,11,33,0.24,7,Fog-Rain,181
2013-3-20,42,34,28,41,34,27,100,94,70,30.19,29.92,29.71,10,3,0,25,13,37,0.31,8,Fog-Rain-Snow,224
2013-3-21,36,30,24,30,26,22,100,91,73,30.33,30.21,30.12,10,6,0,7,1,,0.01,7,Fog-Rain-Snow,346
2013-3-22,36,30,24,27,25,22,100,88,57,30.34,30.26,30.19,10,7,0,13,2,20,0.01,7,Fog-Snow,8
2013-3-23,44,34,26,27,21,15,81,64,46,30.31,30.25,30.19,10,10,10,10,6,,0.00,3,,64
2013-3-24,50,42,35,34,26,17,71,55,46,30.18,30.09,29.99,10,10,10,10,5,,0.00,1,,119
2013-3-25,52,43,36,37,34,31,89,71,56,29.98,29.92,29.88,10,10,8,8,3,,0.02,4,Rain,137
2013-3-26,48,40,33,37,34,30,100,83,61,29.99,29.94,29.92,10,9,0,7,2,,0.00,8,Fog-Snow,281
2013-3-27,51,44,39,43,40,36,100,90,71,29.97,29.91,29.87,10,5,0,13,6,17,0.12,8,Fog-Rain,176
2013-3-28,52,45,39,45,40,37,100,90,71,30.12,30.03,29.95,10,6,0,8,3,,0.02,8,Fog-Rain,259
2013-3-29,59,50,42,46,42,36,100,83,47,30.16,30.13,30.09,10,5,0,9,4,,0.05,5,Fog-Rain,103
2013-3-30,68,55,44,46,42,37,100,67,40,30.08,30.02,29.96,10,8,0,10,6,17,0.02,3,Fog-Rain,140
2013-3-31,46,44,42,45,43,40,100,94,77,30.05,30.02,29.93,10,3,0,12,5,18,0.17,8,Fog-Rain,217